Airfield :
LOGIN :

Register | Disclaimer

   EN    FR    IT 

 










Legend :    VFR   Marginal VFR   IFR   Intensive IFR   Very Intensive IFR
Visi :
Ceiling :
>= 8 km
>= 3000ft
5 to 8 km
1000 to 3000 ft
1500m to 5 km
500 to 1000 ft
800 to 1500m
200 to 500 ft
< 800m
< 200 ft
Symbols :   Thunderstorms  Fog  Heavy snow  Heavy precipitations  Wind > 20 kt
SIGMETs :     Misc.  Thunderstorms  Icing  Turbulence  Mountain Waves  Volcanic Ashes






- Airport Elevation : 23 ft
- IATA code : XFW


EDHI - Hamburg Finkenwerder

CURRENT METAR :
  • 290350Z AUTO 17006KT 120V210 9999 // OVC012/// 13/11 Q1011

EXPIRED METARs :
  • 290320Z AUTO 17006KT 120V200 9999 // BKN014/// OVC047/// 13/10 Q1011
  • 290250Z AUTO 17005KT 130V220 9999 // BKN017/// OVC040/// 14/10 Q1012
  • 290220Z AUTO 17006KT 120V210 9999 // FEW022/// SCT040/// OVC052/// 14/10 Q1012
  • 290150Z AUTO 16006KT 110V230 9999 // BKN056/// OVC077/// 13/10 Q1012
  • 290120Z AUTO 17005KT 120V200 9999 // FEW026/// OVC066/// 13/10 Q1012
  • 290050Z AUTO 14003KT 120V180 9999 // FEW052/// OVC060/// 14/09 Q1013
  • 290020Z AUTO 13003KT 100V170 9999 // FEW053/// BKN070/// OVC080/// 13/09 Q1013
  • 282350Z AUTO 14004KT 110V180 9999 // FEW053/// OVC081/// 14/08 Q1013
  • 282320Z AUTO 13004KT 080V160 9999 // BKN053/// OVC089/// 13/09 Q1013

TAF TAF EDHI
Valid from the 29 at 04:00 until the 29 at 12:00 UTC


290300Z 2904/2912 18010KT 9999 BKN015
TEMPO 2904/2912 4000 RA BKN012
PROB40
TEMPO 2904/2909 BKN008



MET'MAP, your aeronautical weather chart ! - Copyright ORBIFLY December 2007 - Disclaimer

ORBIFLY MET'MAP TEAM :

Programming & Development : Alexandra Zaïnal
Original concept : Baudouin d'Aumeries
Technical & hardware support : Manuel Goepfert
Assistance : Marc-Olivier Méhu




SOURCES & CREDITS :

   NOAA